createdAt,value
2023-07-16T00:02:05.958Z,53.29
2023-07-16T00:04:33.526Z,53.43
2023-07-16T00:07:01.736Z,53.83
2023-07-16T00:09:29.538Z,54.21
2023-07-16T00:11:57.665Z,54.52
2023-07-16T00:14:24.660Z,54.75
2023-07-16T00:16:52.074Z,55.00
2023-07-16T00:19:19.622Z,55.00
2023-07-16T00:21:46.795Z,55.10
2023-07-16T00:24:13.822Z,55.10
2023-07-16T00:26:41.922Z,55.15
2023-07-16T00:29:09.777Z,55.16
2023-07-16T00:31:37.014Z,55.29
2023-07-16T00:34:04.264Z,55.49
2023-07-16T00:36:31.770Z,55.47
2023-07-16T00:38:58.768Z,55.65
2023-07-16T00:41:26.019Z,55.76
2023-07-16T00:43:54.928Z,55.79
2023-07-16T00:46:22.109Z,55.80
2023-07-16T00:48:49.515Z,55.86
2023-07-16T00:51:18.522Z,56.00
2023-07-16T00:53:45.569Z,56.05
2023-07-16T00:56:12.599Z,56.20
2023-07-16T00:58:39.684Z,56.15
2023-07-16T01:01:06.829Z,56.25
2023-07-16T01:03:34.769Z,56.55
2023-07-16T01:06:12.061Z,56.69
2023-07-16T01:08:42.599Z,56.64
2023-07-16T01:11:09.781Z,56.70
2023-07-16T01:13:36.908Z,56.69
2023-07-16T01:16:07.028Z,56.86
2023-07-16T01:18:34.052Z,57.03
2023-07-16T01:21:01.117Z,56.93
2023-07-16T01:23:31.117Z,57.05
2023-07-16T01:26:25.296Z,57.07
2023-07-16T01:29:10.165Z,57.14
2023-07-16T01:31:37.120Z,57.19
2023-07-16T01:34:04.317Z,57.17
2023-07-16T01:36:31.815Z,57.22
2023-07-16T01:38:58.778Z,57.19
2023-07-16T01:41:25.808Z,57.08
2023-07-16T01:43:52.781Z,57.09
2023-07-16T01:46:20.070Z,57.14
2023-07-16T01:48:47.864Z,57.17
2023-07-16T01:51:15.377Z,57.28
2023-07-16T01:53:42.335Z,57.29
2023-07-16T01:56:09.435Z,57.31
2023-07-16T01:58:37.794Z,57.23
2023-07-16T02:01:04.990Z,57.27
2023-07-16T02:03:33.227Z,57.49
2023-07-16T02:06:01.300Z,57.57
2023-07-16T02:08:28.544Z,57.80
2023-07-16T02:10:56.002Z,57.89
2023-07-16T02:13:23.769Z,58.01
2023-07-16T02:15:51.173Z,58.28
2023-07-16T02:18:18.902Z,58.27
2023-07-16T02:20:46.650Z,58.39
2023-07-16T02:23:13.840Z,58.56
2023-07-16T02:25:41.367Z,58.64
2023-07-16T02:28:08.752Z,58.65
2023-07-16T02:30:36.171Z,58.58
2023-07-16T02:33:03.281Z,58.61
2023-07-16T02:35:31.091Z,58.74
2023-07-16T02:37:57.920Z,58.90
2023-07-16T02:40:27.460Z,58.74
2023-07-16T02:42:54.584Z,58.50
2023-07-16T02:45:21.555Z,58.26
2023-07-16T02:47:48.793Z,58.01
2023-07-16T02:50:16.953Z,57.85
2023-07-16T02:52:44.204Z,57.79
2023-07-16T02:55:11.449Z,57.87
2023-07-16T02:57:38.721Z,57.64
2023-07-16T03:00:07.088Z,57.49
2023-07-16T03:02:34.459Z,57.39
2023-07-16T03:05:03.437Z,57.30
2023-07-16T03:07:30.921Z,57.33
2023-07-16T03:09:57.932Z,57.18
2023-07-16T03:12:25.098Z,56.96
2023-07-16T03:14:54.898Z,56.80
2023-07-16T03:17:24.829Z,56.66
2023-07-16T03:19:53.938Z,56.63
2023-07-16T03:22:23.655Z,56.56
2023-07-16T03:24:50.871Z,56.58
2023-07-16T03:27:19.081Z,56.84
2023-07-16T03:29:49.769Z,57.10
2023-07-16T03:32:18.075Z,57.12
2023-07-16T03:34:46.020Z,57.15
2023-07-16T03:37:15.260Z,57.37
2023-07-16T03:39:42.528Z,57.57
2023-07-16T03:42:10.134Z,57.59
2023-07-16T03:44:37.195Z,57.46
2023-07-16T03:47:04.704Z,57.33
2023-07-16T03:49:32.004Z,57.27
2023-07-16T03:51:58.927Z,57.01
2023-07-16T03:54:26.800Z,56.94
2023-07-16T03:56:53.947Z,56.97
2023-07-16T03:59:21.342Z,57.11
2023-07-16T04:01:48.528Z,57.27
2023-07-16T04:04:15.807Z,57.31
2023-07-16T04:06:43.798Z,57.58
2023-07-16T04:09:11.128Z,57.41
2023-07-16T04:11:38.402Z,57.02
2023-07-16T04:14:07.683Z,57.03
2023-07-16T04:16:35.405Z,57.29
2023-07-16T04:19:02.399Z,57.14
2023-07-16T04:21:29.433Z,57.25
2023-07-16T04:23:56.377Z,57.04
2023-07-16T04:26:23.527Z,56.83
2023-07-16T04:28:50.582Z,57.03
2023-07-16T04:31:17.844Z,56.96
2023-07-16T04:33:44.976Z,56.64
2023-07-16T04:36:11.918Z,56.10
2023-07-16T04:38:39.093Z,54.97
2023-07-16T04:41:06.321Z,54.15
2023-07-16T04:43:33.508Z,53.05
2023-07-16T04:46:00.559Z,52.22
2023-07-16T04:48:27.917Z,51.94
2023-07-16T04:50:55.020Z,51.72
2023-07-16T04:53:23.300Z,51.46
2023-07-16T04:55:50.664Z,51.24
2023-07-16T04:58:17.915Z,50.66
2023-07-16T05:00:44.974Z,50.27
2023-07-16T05:03:12.019Z,49.62
2023-07-16T05:05:40.990Z,48.64
2023-07-16T05:08:08.042Z,47.52
2023-07-16T05:10:35.600Z,46.69
2023-07-16T05:13:04.300Z,45.43
2023-07-16T05:15:32.969Z,44.16
2023-07-16T05:18:00.608Z,42.75
2023-07-16T05:20:27.876Z,41.69
2023-07-16T05:22:55.420Z,40.34
2023-07-16T05:25:22.497Z,39.82
2023-07-16T05:27:49.541Z,39.18
2023-07-16T05:30:17.011Z,38.81
2023-07-16T05:32:44.392Z,38.10
2023-07-16T05:35:11.915Z,37.57
2023-07-16T05:37:38.954Z,36.76
2023-07-16T05:40:09.502Z,36.11
2023-07-16T05:42:37.251Z,36.19
2023-07-16T05:45:04.801Z,35.93
2023-07-16T05:47:32.120Z,34.97
2023-07-16T05:49:59.206Z,34.28
2023-07-16T05:52:26.670Z,34.40
2023-07-16T05:54:53.815Z,33.64
2023-07-16T05:57:20.871Z,32.74
2023-07-16T05:59:47.800Z,32.22
2023-07-16T06:02:14.970Z,31.65
2023-07-16T06:04:42.001Z,30.94
2023-07-16T06:07:13.551Z,30.26
2023-07-16T06:09:42.035Z,30.43
2023-07-16T06:12:09.076Z,30.08
2023-07-16T06:14:36.136Z,29.67
2023-07-16T06:17:03.478Z,28.55
2023-07-16T06:19:30.548Z,27.73
2023-07-16T06:21:57.798Z,27.08
2023-07-16T06:24:25.282Z,26.28
2023-07-16T06:26:56.784Z,25.68
2023-07-16T06:29:23.836Z,24.60
2023-07-16T06:31:58.756Z,24.64
2023-07-16T06:34:26.028Z,24.94
2023-07-16T06:36:53.316Z,24.72
2023-07-16T06:39:21.138Z,24.12
2023-07-16T06:41:48.401Z,24.09
2023-07-16T06:44:15.852Z,22.93
2023-07-16T06:46:44.272Z,22.60
2023-07-16T06:49:11.402Z,22.73
2023-07-16T06:51:38.828Z,22.40
2023-07-16T06:54:06.111Z,21.96
2023-07-16T06:56:33.026Z,21.62
2023-07-16T06:58:59.966Z,21.66
2023-07-16T07:01:28.688Z,21.06
2023-07-16T07:03:55.965Z,19.93
2023-07-16T07:06:25.592Z,19.50
2023-07-16T07:08:53.090Z,19.46
2023-07-16T07:11:20.879Z,19.60
2023-07-16T07:13:51.060Z,19.39
2023-07-16T07:16:19.114Z,19.01
2023-07-16T07:18:46.284Z,18.63
2023-07-16T07:21:13.327Z,18.03
2023-07-16T07:23:41.414Z,17.54
2023-07-16T07:26:09.162Z,17.65
2023-07-16T07:28:37.377Z,18.24
2023-07-16T07:31:06.579Z,17.96
2023-07-16T07:33:33.784Z,17.45
2023-07-16T07:36:00.737Z,16.98
2023-07-16T07:38:31.419Z,17.26
2023-07-16T07:40:58.425Z,16.92
2023-07-16T07:43:25.680Z,16.91
2023-07-16T07:45:53.454Z,16.72
2023-07-16T07:48:22.010Z,16.47
2023-07-16T07:50:51.157Z,16.81
2023-07-16T07:53:20.000Z,16.77
2023-07-16T07:55:47.247Z,16.37
2023-07-16T07:58:14.327Z,16.39
2023-07-16T08:00:41.338Z,16.69
2023-07-16T08:03:08.681Z,16.75
2023-07-16T08:05:36.149Z,16.89
2023-07-16T08:08:03.448Z,16.79
2023-07-16T08:10:30.479Z,16.84
2023-07-16T08:12:58.217Z,17.66
2023-07-16T08:15:25.684Z,19.02
2023-07-16T08:17:55.492Z,19.67
2023-07-16T08:20:22.860Z,20.57
2023-07-16T08:22:50.689Z,20.18
2023-07-16T08:25:17.993Z,19.87
2023-07-16T08:27:45.009Z,20.28
2023-07-16T08:30:12.277Z,20.32
2023-07-16T08:32:39.600Z,20.02
2023-07-16T08:35:07.491Z,19.50
2023-07-16T08:37:34.538Z,19.42
2023-07-16T08:40:01.588Z,19.37
2023-07-16T08:42:28.532Z,18.82
2023-07-16T08:44:55.663Z,19.37
2023-07-16T08:47:23.088Z,19.66
2023-07-16T08:50:01.136Z,19.04
2023-07-16T08:52:28.883Z,18.14
2023-07-16T08:54:56.062Z,17.67
2023-07-16T08:57:23.604Z,16.81
2023-07-16T08:59:51.461Z,16.57
2023-07-16T09:02:19.230Z,17.28
2023-07-16T09:04:51.449Z,17.56
2023-07-16T09:07:19.793Z,17.15
2023-07-16T09:09:59.656Z,15.70
2023-07-16T09:12:27.073Z,16.17
2023-07-16T09:14:56.211Z,16.87
2023-07-16T09:17:27.384Z,16.72
2023-07-16T09:19:54.590Z,16.22
2023-07-16T09:22:21.975Z,16.15
2023-07-16T09:24:49.604Z,16.21
2023-07-16T09:27:16.656Z,15.78
2023-07-16T09:29:44.085Z,15.59
2023-07-16T09:32:11.229Z,16.09
2023-07-16T09:34:39.519Z,15.40
2023-07-16T09:37:07.195Z,15.38
2023-07-16T09:39:34.335Z,15.74
2023-07-16T09:42:02.082Z,16.68
2023-07-16T09:44:29.977Z,17.53
2023-07-16T09:46:57.144Z,18.11
2023-07-16T09:49:24.695Z,18.89
2023-07-16T09:51:52.021Z,19.37
2023-07-16T09:54:19.782Z,19.91
2023-07-16T09:56:50.313Z,19.13
2023-07-16T09:59:18.696Z,18.78
2023-07-16T10:01:45.916Z,19.18
2023-07-16T10:04:20.982Z,19.42
2023-07-16T10:07:22.328Z,19.35
2023-07-16T10:09:57.413Z,19.37
2023-07-16T10:12:25.887Z,18.63
2023-07-16T10:14:59.846Z,18.61
2023-07-16T10:17:27.330Z,19.40
2023-07-16T10:20:02.467Z,18.95
2023-07-16T10:22:39.771Z,18.62
2023-07-16T10:25:11.334Z,17.93
2023-07-16T10:27:39.797Z,16.88
2023-07-16T10:30:08.140Z,17.60
2023-07-16T10:32:35.666Z,17.28
2023-07-16T10:35:03.918Z,17.26
2023-07-16T10:37:30.936Z,17.73
2023-07-16T10:40:00.227Z,18.41
2023-07-16T10:42:28.088Z,18.08
2023-07-16T10:44:56.711Z,18.56
2023-07-16T10:47:25.166Z,18.15
2023-07-16T10:49:54.756Z,17.57
2023-07-16T10:52:22.636Z,18.57
2023-07-16T10:54:50.692Z,18.93
2023-07-16T10:57:17.680Z,19.09
2023-07-16T10:59:45.606Z,18.92
2023-07-16T11:02:14.740Z,18.77
2023-07-16T11:04:44.725Z,19.35
2023-07-16T11:07:12.710Z,19.63
2023-07-16T11:10:03.488Z,19.15
2023-07-16T11:12:30.845Z,19.17
2023-07-16T11:14:58.408Z,20.28
2023-07-16T11:17:27.531Z,20.98
2023-07-16T11:19:56.213Z,21.60
2023-07-16T11:22:29.971Z,21.51
2023-07-16T11:24:57.033Z,21.33
2023-07-16T11:27:26.865Z,21.78
2023-07-16T11:29:58.107Z,21.84
2023-07-16T11:32:35.803Z,22.51
2023-07-16T11:35:04.816Z,22.80
2023-07-16T11:37:33.262Z,22.17
2023-07-16T11:40:09.832Z,22.16
2023-07-16T11:42:40.676Z,22.67
2023-07-16T11:45:27.072Z,23.43
2023-07-16T11:47:54.787Z,23.10
2023-07-16T11:50:22.098Z,22.61
2023-07-16T11:52:54.211Z,22.82
2023-07-16T11:55:21.097Z,22.58
2023-07-16T11:57:48.571Z,23.47
2023-07-16T12:00:15.795Z,23.68
2023-07-16T12:02:43.293Z,23.56
2023-07-16T12:05:12.286Z,23.72
2023-07-16T12:07:40.986Z,23.45
2023-07-16T12:10:08.648Z,23.81
2023-07-16T12:12:39.107Z,23.61
2023-07-16T12:15:08.224Z,23.46
2023-07-16T12:17:36.425Z,24.19
2023-07-16T12:20:04.767Z,24.24
2023-07-16T12:22:32.842Z,24.21
2023-07-16T12:25:00.235Z,24.44
2023-07-16T12:27:27.294Z,24.76
2023-07-16T12:29:54.712Z,24.75
2023-07-16T12:32:22.096Z,25.29
2023-07-16T12:34:49.222Z,25.61
2023-07-16T12:37:17.690Z,25.75
2023-07-16T12:39:44.862Z,26.35
2023-07-16T12:42:12.001Z,26.00
2023-07-16T12:44:39.756Z,25.71
2023-07-16T12:47:09.137Z,25.69
2023-07-16T12:49:36.441Z,25.55
2023-07-16T12:52:04.196Z,26.00
2023-07-16T12:54:32.446Z,26.25
2023-07-16T12:56:59.414Z,26.42
2023-07-16T12:59:26.544Z,26.44
2023-07-16T13:01:53.620Z,26.61
2023-07-16T13:04:20.634Z,26.44
2023-07-16T13:06:49.112Z,26.84
2023-07-16T13:09:17.216Z,27.20
2023-07-16T13:11:44.347Z,26.80
2023-07-16T13:14:11.599Z,26.54
2023-07-16T13:16:39.287Z,26.44
2023-07-16T13:19:06.600Z,26.40
2023-07-16T13:21:34.677Z,26.65
2023-07-16T13:24:01.658Z,27.33
2023-07-16T13:26:29.534Z,27.38
2023-07-16T13:28:56.916Z,27.47
2023-07-16T13:31:24.029Z,27.06
2023-07-16T13:33:51.138Z,27.60
2023-07-16T13:36:18.909Z,27.51
2023-07-16T13:38:46.271Z,27.17
2023-07-16T13:41:13.065Z,26.83
2023-07-16T13:43:40.164Z,27.07
2023-07-16T13:46:09.541Z,27.35
2023-07-16T13:48:47.868Z,27.40
2023-07-16T13:51:24.236Z,28.00
2023-07-16T13:53:51.282Z,28.57
2023-07-16T13:56:18.503Z,29.32
2023-07-16T13:58:45.882Z,29.32
2023-07-16T14:01:13.155Z,28.91
2023-07-16T14:03:40.410Z,29.20
2023-07-16T14:06:07.783Z,29.32
2023-07-16T14:08:36.634Z,29.08
2023-07-16T14:11:03.987Z,29.20
2023-07-16T14:13:31.357Z,29.27
2023-07-16T14:15:58.298Z,29.44
2023-07-16T14:18:25.773Z,29.71
2023-07-16T14:20:52.804Z,30.03
2023-07-16T14:23:20.169Z,30.27
2023-07-16T14:25:47.404Z,30.29
2023-07-16T14:28:14.540Z,29.99
2023-07-16T14:30:42.635Z,29.93
2023-07-16T14:33:11.811Z,29.88
2023-07-16T14:35:40.005Z,29.80
2023-07-16T14:38:07.237Z,30.23
2023-07-16T14:40:35.451Z,30.76
2023-07-16T14:43:04.914Z,30.56
2023-07-16T14:45:34.691Z,30.71
2023-07-16T14:48:02.075Z,30.75
2023-07-16T14:50:29.642Z,30.95
2023-07-16T14:52:56.812Z,31.54
2023-07-16T14:55:23.954Z,31.47
2023-07-16T14:57:51.431Z,31.38
2023-07-16T15:00:19.260Z,31.41
2023-07-16T15:02:46.681Z,31.76
2023-07-16T15:05:13.698Z,31.78
2023-07-16T15:07:42.246Z,31.80
2023-07-16T15:10:10.454Z,32.12
2023-07-16T15:12:37.997Z,32.13
2023-07-16T15:15:11.729Z,31.89
2023-07-16T15:17:39.014Z,32.51
2023-07-16T15:20:07.480Z,32.77
2023-07-16T15:22:35.125Z,33.14
2023-07-16T15:25:03.452Z,33.78
2023-07-16T15:27:31.965Z,33.72
2023-07-16T15:29:59.594Z,33.88
2023-07-16T15:32:27.076Z,34.09
2023-07-16T15:34:54.416Z,34.19
2023-07-16T15:37:22.068Z,34.23
2023-07-16T15:39:49.844Z,34.21
2023-07-16T15:42:16.877Z,34.26
2023-07-16T15:44:43.946Z,34.20
2023-07-16T15:47:11.178Z,34.13
2023-07-16T15:49:38.462Z,34.63
2023-07-16T15:52:05.685Z,34.65
2023-07-16T15:54:32.772Z,34.81
2023-07-16T15:57:00.502Z,34.58
2023-07-16T15:59:27.545Z,34.78
2023-07-16T16:01:55.436Z,35.13
2023-07-16T16:04:22.862Z,35.12
2023-07-16T16:06:50.028Z,34.84
2023-07-16T16:09:17.690Z,35.20
2023-07-16T16:11:44.852Z,35.20
2023-07-16T16:14:12.710Z,35.16
2023-07-16T16:16:50.266Z,35.65
2023-07-16T16:19:25.115Z,35.80
2023-07-16T16:21:52.471Z,35.91
2023-07-16T16:24:19.520Z,36.12
2023-07-16T16:26:46.786Z,36.39
2023-07-16T16:29:13.812Z,36.47
2023-07-16T16:31:42.206Z,36.83
2023-07-16T16:34:09.444Z,37.12
2023-07-16T16:36:36.496Z,37.65
2023-07-16T16:39:03.638Z,38.18
2023-07-16T16:41:30.788Z,38.25
2023-07-16T16:43:57.834Z,38.66
2023-07-16T16:46:25.305Z,39.08
2023-07-16T16:48:52.362Z,39.36
2023-07-16T16:51:20.457Z,39.55
2023-07-16T16:53:48.098Z,39.77
2023-07-16T16:56:15.119Z,40.35
2023-07-16T16:58:42.199Z,40.74
2023-07-16T17:01:09.233Z,41.27
2023-07-16T17:03:36.363Z,41.14
2023-07-16T17:06:03.421Z,41.76
2023-07-16T17:08:30.564Z,42.36
2023-07-16T17:10:58.187Z,42.99
2023-07-16T17:13:25.270Z,43.46
2023-07-16T17:15:52.224Z,43.92
2023-07-16T17:18:19.607Z,44.07
2023-07-16T17:20:47.972Z,44.41
2023-07-16T17:23:15.029Z,44.76
2023-07-16T17:25:42.586Z,44.92
2023-07-16T17:28:09.708Z,45.28
2023-07-16T17:30:38.316Z,44.91
2023-07-16T17:33:05.413Z,45.28
2023-07-16T17:35:33.092Z,46.46
2023-07-16T17:38:00.376Z,46.92
2023-07-16T17:40:27.432Z,47.04
2023-07-16T17:42:55.287Z,47.28
2023-07-16T17:45:24.048Z,46.68
2023-07-16T17:47:51.118Z,46.71
2023-07-16T17:50:18.345Z,47.48
2023-07-16T17:52:47.442Z,47.73
2023-07-16T17:55:14.565Z,47.80
2023-07-16T17:57:44.839Z,47.94
2023-07-16T18:00:23.901Z,47.94
2023-07-16T18:02:52.166Z,47.95
2023-07-16T18:05:19.834Z,48.54
2023-07-16T18:07:51.334Z,48.94
2023-07-16T18:10:21.569Z,49.72
2023-07-16T18:12:48.711Z,49.86
2023-07-16T18:15:15.985Z,48.08
2023-07-16T18:17:47.317Z,46.32
2023-07-16T18:20:15.279Z,46.08
2023-07-16T18:22:42.885Z,46.40
2023-07-16T18:25:12.705Z,46.74
2023-07-16T18:27:39.709Z,47.06
2023-07-16T18:30:08.366Z,46.11
2023-07-16T18:32:39.425Z,45.76
2023-07-16T18:35:07.184Z,45.54
2023-07-16T18:37:36.074Z,45.23
2023-07-16T18:40:04.408Z,45.45
2023-07-16T18:42:32.214Z,45.88
2023-07-16T18:45:05.249Z,45.24
2023-07-16T18:47:32.495Z,44.81
2023-07-16T18:49:59.709Z,44.54
2023-07-16T18:52:26.871Z,45.19
2023-07-16T18:54:55.650Z,45.51
2023-07-16T18:57:24.580Z,45.91
2023-07-16T18:59:52.705Z,45.74
2023-07-16T19:02:20.164Z,45.30
2023-07-16T19:04:47.144Z,45.02
2023-07-16T19:07:14.358Z,45.13
2023-07-16T19:09:41.514Z,44.93
2023-07-16T19:12:09.066Z,44.95
2023-07-16T19:14:38.086Z,45.15
2023-07-16T19:17:05.728Z,45.28
2023-07-16T19:19:32.970Z,45.42
2023-07-16T19:22:00.027Z,46.19
2023-07-16T19:24:26.974Z,46.68
2023-07-16T19:26:54.127Z,46.72
2023-07-16T19:29:20.958Z,46.76
2023-07-16T19:31:48.063Z,46.88
2023-07-16T19:34:15.155Z,46.93
2023-07-16T19:36:42.830Z,47.11
2023-07-16T19:39:09.968Z,47.25
2023-07-16T19:41:37.143Z,47.57
2023-07-16T19:44:04.371Z,47.81
2023-07-16T19:46:32.312Z,48.01
2023-07-16T19:48:59.688Z,48.55
2023-07-16T19:51:26.835Z,49.38
2023-07-16T19:53:53.905Z,50.14
2023-07-16T19:56:22.279Z,50.66
2023-07-16T19:58:49.541Z,51.28
2023-07-16T20:01:16.822Z,52.04
2023-07-16T20:03:43.940Z,52.67
2023-07-16T20:06:11.150Z,53.26
2023-07-16T20:08:38.866Z,53.86
2023-07-16T20:11:05.880Z,53.77
2023-07-16T20:13:35.229Z,53.47
2023-07-16T20:16:07.066Z,53.49
2023-07-16T20:18:36.671Z,54.12
2023-07-16T20:21:05.474Z,54.75
2023-07-16T20:23:34.732Z,55.22
2023-07-16T20:26:01.782Z,55.83
2023-07-16T20:28:29.028Z,56.35
2023-07-16T20:30:56.173Z,57.08
2023-07-16T20:33:23.555Z,57.47
2023-07-16T20:35:51.203Z,57.84
2023-07-16T20:38:18.372Z,58.31
2023-07-16T20:40:47.438Z,58.80
2023-07-16T20:43:16.224Z,59.02
2023-07-16T20:45:46.094Z,59.81
2023-07-16T20:48:17.081Z,60.74
2023-07-16T20:50:44.063Z,61.28
2023-07-16T20:53:11.492Z,61.41
2023-07-16T20:55:38.537Z,61.97
2023-07-16T20:58:06.198Z,62.70
2023-07-16T21:00:33.260Z,63.58
2023-07-16T21:03:05.527Z,64.04
2023-07-16T21:05:33.376Z,64.35
2023-07-16T21:08:01.660Z,64.84
2023-07-16T21:10:28.929Z,65.76
2023-07-16T21:12:57.757Z,66.26
2023-07-16T21:15:27.007Z,67.04
2023-07-16T21:17:54.067Z,68.39
2023-07-16T21:20:21.108Z,68.82
2023-07-16T21:22:48.471Z,68.97
2023-07-16T21:25:15.829Z,69.50
2023-07-16T21:27:47.560Z,69.69
2023-07-16T21:30:15.218Z,69.49
2023-07-16T21:32:44.984Z,69.48
2023-07-16T21:35:12.947Z,69.65
2023-07-16T21:37:40.899Z,69.64
2023-07-16T21:40:08.520Z,69.79
2023-07-16T21:42:36.281Z,70.37
2023-07-16T21:45:04.074Z,70.85
2023-07-16T21:47:31.120Z,70.85
2023-07-16T21:49:58.775Z,71.29
2023-07-16T21:52:25.907Z,71.74
2023-07-16T21:54:53.195Z,72.14
2023-07-16T21:57:20.207Z,72.67
2023-07-16T21:59:47.878Z,73.07
2023-07-16T22:02:15.019Z,73.57
2023-07-16T22:04:42.088Z,73.92
2023-07-16T22:07:09.618Z,74.38
2023-07-16T22:09:36.670Z,74.92
2023-07-16T22:12:04.137Z,75.73
2023-07-16T22:14:31.281Z,75.87
2023-07-16T22:16:58.248Z,75.56
2023-07-16T22:19:32.572Z,74.75
2023-07-16T22:22:01.298Z,74.47
2023-07-16T22:24:28.697Z,73.95
2023-07-16T22:26:56.147Z,72.11
2023-07-16T22:29:24.034Z,70.82
2023-07-16T22:31:51.003Z,69.71
2023-07-16T22:34:18.346Z,68.62
2023-07-16T22:36:46.013Z,68.06
2023-07-16T22:39:13.724Z,68.58
2023-07-16T22:41:43.143Z,68.95
2023-07-16T22:44:10.077Z,70.38
2023-07-16T22:46:37.095Z,71.24
2023-07-16T22:49:07.135Z,72.11
2023-07-16T22:51:34.730Z,73.60
2023-07-16T22:54:03.586Z,74.12
2023-07-16T22:56:30.947Z,74.96
2023-07-16T22:58:57.886Z,75.53
2023-07-16T23:01:25.238Z,75.17
2023-07-16T23:03:52.230Z,73.05
2023-07-16T23:06:19.643Z,73.16
2023-07-16T23:08:46.710Z,71.54
2023-07-16T23:11:14.186Z,70.56
2023-07-16T23:13:44.414Z,70.11
2023-07-16T23:16:11.981Z,69.09
2023-07-16T23:18:38.970Z,68.72
2023-07-16T23:21:07.877Z,68.34
2023-07-16T23:23:36.754Z,68.95
2023-07-16T23:26:07.124Z,69.15
2023-07-16T23:28:34.844Z,69.12
2023-07-16T23:31:02.050Z,68.90
2023-07-16T23:33:29.384Z,68.70
2023-07-16T23:35:57.130Z,68.56
2023-07-16T23:38:24.684Z,68.71
2023-07-16T23:40:52.225Z,69.64
2023-07-16T23:43:19.296Z,70.11
2023-07-16T23:45:46.318Z,70.68
2023-07-16T23:48:14.424Z,71.13
2023-07-16T23:50:44.511Z,70.60
2023-07-16T23:53:11.461Z,70.43
2023-07-16T23:55:39.552Z,70.93
2023-07-16T23:58:06.787Z,70.92
